UPS136 YSSY-KORD
Flight info
| Callsign | UPS136 |
|---|---|
| Flight time | N/A |
| Altitude | 31000 |
| Route | KADOM A576 TESAT B450 NOBAR A579 NN B581 BAXIL/N0503F330 B581 WOSLU/N0494F350 B581 AFONE/N0476F370 B581 FICKY C1177 MALIT C1156 MZB J18 PXR/N0478F390 J18 SLN J96 IRK BENKY6 |
| Aircraft | B748/H-SDE3FGHIM1M2RWXY/LB1 |
Departure
| Time | 2026-05-06 07:09 |
|---|---|
| Airport | Sydney Kingsford Smith International Airport (YSSY) |
Arrival
| Time | N/A |
|---|---|
| Airport | Chicago O'Hare International Airport (KORD) |
| Time | Latitude | Longitude | Altitude | Speed | Heading |
|---|---|---|---|---|---|
| 2026-05-06 06:35 | -33.93172 | 151.16806 | 40 ft | 0 kts | 258° |
| 2026-05-06 06:59 | -33.93166 | 151.16833 | 38 ft | 4 kts | 248° |
| 2026-05-06 06:59 | -33.93154 | 151.16862 | 37 ft | 4 kts | 243° |
| 2026-05-06 07:00 | -33.93145 | 151.16891 | 40 ft | 4 kts | 272° |
| 2026-05-06 07:00 | -33.93150 | 151.16918 | 37 ft | 4 kts | 300° |
| 2026-05-06 07:00 | -33.93167 | 151.16940 | 37 ft | 4 kts | 339° |
| 2026-05-06 07:00 | -33.93192 | 151.16948 | 39 ft | 2 kts | 348° |
| 2026-05-06 07:01 | -33.93194 | 151.16948 | 39 ft | 0 kts | 348° |
| 2026-05-06 07:03 | -33.93190 | 151.16947 | 38 ft | 2 kts | 348° |
| 2026-05-06 07:04 | -33.93161 | 151.16939 | 38 ft | 6 kts | 347° |
| 2026-05-06 07:04 | -33.93105 | 151.16924 | 40 ft | 10 kts | 347° |
| 2026-05-06 07:04 | -33.93024 | 151.16903 | 40 ft | 14 kts | 348° |
| 2026-05-06 07:04 | -33.92987 | 151.16914 | 40 ft | 2 kts | 57° |
| 2026-05-06 07:05 | -33.92985 | 151.16929 | 40 ft | 3 kts | 81° |
| 2026-05-06 07:05 | -33.92981 | 151.16967 | 40 ft | 6 kts | 80° |
| 2026-05-06 07:05 | -33.92975 | 151.16995 | 40 ft | 3 kts | 78° |
| 2026-05-06 07:05 | -33.92974 | 151.17001 | 40 ft | 0 kts | 78° |
| 2026-05-06 07:06 | -33.92973 | 151.17009 | 40 ft | 3 kts | 78° |
| 2026-05-06 07:06 | -33.92966 | 151.17048 | 40 ft | 7 kts | 78° |
| 2026-05-06 07:06 | -33.92960 | 151.17120 | 40 ft | 9 kts | 104° |
| 2026-05-06 07:06 | -33.92986 | 151.17164 | 40 ft | 10 kts | 141° |
| 2026-05-06 07:07 | -33.93048 | 151.17189 | 40 ft | 0 kts | 168° |
| 2026-05-06 07:08 | -33.93096 | 151.17201 | 40 ft | 31 kts | 168° |
| 2026-05-06 07:08 | -33.93569 | 151.17322 | 37 ft | 106 kts | 167° |
| 2026-05-06 07:08 | -33.94515 | 151.17571 | 40 ft | 170 kts | 168° |
| 2026-05-06 07:09 | -33.95855 | 151.17902 | 94 ft | 220 kts | 166° |
| 2026-05-06 07:09 | -33.97422 | 151.18248 | 809 ft | 233 kts | 170° |
| 2026-05-06 07:09 | -33.99046 | 151.18446 | 1759 ft | 232 kts | 180° |
| 2026-05-06 07:09 | -34.00655 | 151.18072 | 2146 ft | 243 kts | 198° |
| 2026-05-06 07:10 | -34.02321 | 151.17553 | 2473 ft | 255 kts | 186° |
| 2026-05-06 07:10 | -34.04113 | 151.17784 | 2776 ft | 265 kts | 165° |
| 2026-05-06 07:10 | -34.05890 | 151.18469 | 3166 ft | 270 kts | 161° |
| 2026-05-06 07:10 | -34.07683 | 151.19197 | 3581 ft | 273 kts | 164° |